sensor_id;sensor_type;location;lat;lon;timestamp;pressure;altitude;pressure_sealevel;temperature;humidity
62237;BME280;69163;48.778;2.308;2023-06-14T00:00:04;100380.79;;;22.56;37.25
62237;BME280;69163;48.778;2.308;2023-06-14T00:02:28;100380.42;;;23.26;37.23
62237;BME280;69163;48.778;2.308;2023-06-14T00:04:54;100381.70;;;22.82;37.17
62237;BME280;69163;48.778;2.308;2023-06-14T00:09:45;100383.86;;;23.05;37.22
62237;BME280;69163;48.778;2.308;2023-06-14T00:12:11;100382.48;;;23.01;37.25
62237;BME280;69163;48.778;2.308;2023-06-14T00:14:36;100382.48;;;22.73;37.29
62237;BME280;69163;48.778;2.308;2023-06-14T00:17:02;100384.16;;;22.72;37.27
62237;BME280;69163;48.778;2.308;2023-06-14T00:19:26;100385.78;;;23.02;37.19
62237;BME280;69163;48.778;2.308;2023-06-14T00:21:52;100387.33;;;22.83;37.13
62237;BME280;69163;48.778;2.308;2023-06-14T00:24:19;100385.14;;;23.27;37.18
62237;BME280;69163;48.778;2.308;2023-06-14T00:26:44;100386.37;;;22.78;37.20
62237;BME280;69163;48.778;2.308;2023-06-14T00:29:09;100385.15;;;23.26;37.21
62237;BME280;69163;48.778;2.308;2023-06-14T00:31:35;100383.56;;;22.78;37.21
62237;BME280;69163;48.778;2.308;2023-06-14T00:34:01;100385.18;;;22.76;37.26
62237;BME280;69163;48.778;2.308;2023-06-14T00:36:25;100387.41;;;22.48;37.29
62237;BME280;69163;48.778;2.308;2023-06-14T00:38:51;100384.48;;;22.96;37.27
62237;BME280;69163;48.778;2.308;2023-06-14T00:41:17;100386.00;;;22.75;37.23
62237;BME280;69163;48.778;2.308;2023-06-14T00:43:43;100387.55;;;23.00;37.19
62237;BME280;69163;48.778;2.308;2023-06-14T00:46:08;100389.82;;;22.81;37.14
62237;BME280;69163;48.778;2.308;2023-06-14T00:48:34;100388.96;;;23.22;37.24
62237;BME280;69163;48.778;2.308;2023-06-14T00:51:00;100388.37;;;22.98;37.26
62237;BME280;69163;48.778;2.308;2023-06-14T00:53:24;100390.39;;;22.98;37.25
62237;BME280;69163;48.778;2.308;2023-06-14T00:55:49;100390.99;;;22.73;37.26
62237;BME280;69163;48.778;2.308;2023-06-14T00:58:15;100390.28;;;22.77;37.22
62237;BME280;69163;48.778;2.308;2023-06-14T01:00:39;100390.49;;;22.95;37.26
62237;BME280;69163;48.778;2.308;2023-06-14T01:03:05;100390.29;;;22.76;37.20
62237;BME280;69163;48.778;2.308;2023-06-14T01:05:31;100392.53;;;22.97;37.23
62237;BME280;69163;48.778;2.308;2023-06-14T01:08:05;100394.11;;;23.00;37.18
62237;BME280;69163;48.778;2.308;2023-06-14T01:10:29;100391.92;;;22.94;37.26
62237;BME280;69163;48.778;2.308;2023-06-14T01:12:53;100392.34;;;22.68;37.29
62237;BME280;69163;48.778;2.308;2023-06-14T01:15:13;100393.36;;;22.93;37.29
62237;BME280;69163;48.778;2.308;2023-06-14T01:17:37;100390.69;;;22.65;37.33
62237;BME280;69163;48.778;2.308;2023-06-14T01:20:02;100388.46;;;22.67;37.31
62237;BME280;69163;48.778;2.308;2023-06-14T01:22:28;100390.03;;;23.17;37.24
62237;BME280;69163;48.778;2.308;2023-06-14T01:24:53;100392.28;;;22.69;37.27
62237;BME280;69163;48.778;2.308;2023-06-14T01:27:18;100399.44;;;22.71;37.22
62237;BME280;69163;48.778;2.308;2023-06-14T01:29:43;100400.75;;;22.47;37.22
62237;BME280;69163;48.778;2.308;2023-06-14T01:32:08;100401.58;;;22.94;37.23
62237;BME280;69163;48.778;2.308;2023-06-14T01:34:34;100400.64;;;22.71;37.25
62237;BME280;69163;48.778;2.308;2023-06-14T01:37:01;100397.64;;;22.95;37.26
62237;BME280;69163;48.778;2.308;2023-06-14T01:39:24;100398.62;;;22.95;37.23
62237;BME280;69163;48.778;2.308;2023-06-14T01:41:51;100396.01;;;23.13;37.30
62237;BME280;69163;48.778;2.308;2023-06-14T01:44:17;100394.20;;;22.67;37.29
62237;BME280;69163;48.778;2.308;2023-06-14T01:46:42;100393.10;;;22.90;37.25
62237;BME280;69163;48.778;2.308;2023-06-14T01:49:06;100390.02;;;22.47;37.21
62237;BME280;69163;48.778;2.308;2023-06-14T01:51:32;100392.36;;;22.92;37.25
62237;BME280;69163;48.778;2.308;2023-06-14T01:53:58;100391.38;;;22.90;37.28
62237;BME280;69163;48.778;2.308;2023-06-14T01:56:23;100394.44;;;22.66;37.30
62237;BME280;69163;48.778;2.308;2023-06-14T01:58:48;100391.86;;;22.65;37.29
62237;BME280;69163;48.778;2.308;2023-06-14T02:01:14;100389.84;;;22.66;37.26
62237;BME280;69163;48.778;2.308;2023-06-14T02:03:39;100388.99;;;22.80;37.36
62237;BME280;69163;48.778;2.308;2023-06-14T02:06:04;100387.67;;;22.90;37.26
62237;BME280;69163;48.778;2.308;2023-06-14T02:08:29;100391.22;;;22.67;37.21
62237;BME280;69163;48.778;2.308;2023-06-14T02:10:55;100392.90;;;23.17;37.18
62237;BME280;69163;48.778;2.308;2023-06-14T02:13:21;100395.35;;;22.93;37.20
62237;BME280;69163;48.778;2.308;2023-06-14T02:15:46;100395.94;;;22.69;37.23
62237;BME280;69163;48.778;2.308;2023-06-14T02:18:11;100395.17;;;22.64;37.26
62237;BME280;69163;48.778;2.308;2023-06-14T02:20:37;100396.41;;;22.87;37.29
62237;BME280;69163;48.778;2.308;2023-06-14T02:23:03;100397.86;;;22.84;37.31
62237;BME280;69163;48.778;2.308;2023-06-14T02:25:28;100399.21;;;22.58;37.31
62237;BME280;69163;48.778;2.308;2023-06-14T02:27:53;100400.02;;;23.07;37.28
62237;BME280;69163;48.778;2.308;2023-06-14T02:30:18;100400.22;;;22.87;37.26
62237;BME280;69163;48.778;2.308;2023-06-14T02:32:45;100399.21;;;22.83;37.28
62237;BME280;69163;48.778;2.308;2023-06-14T02:35:10;100399.93;;;22.83;37.31
62237;BME280;69163;48.778;2.308;2023-06-14T02:37:35;100400.63;;;22.60;37.27
62237;BME280;69163;48.778;2.308;2023-06-14T02:40:00;100401.59;;;23.08;37.27
62237;BME280;69163;48.778;2.308;2023-06-14T02:42:26;100403.19;;;22.64;37.24
62237;BME280;69163;48.778;2.308;2023-06-14T02:44:52;100405.18;;;22.60;37.27
62237;BME280;69163;48.778;2.308;2023-06-14T02:47:17;100404.40;;;22.64;37.20
62237;BME280;69163;48.778;2.308;2023-06-14T02:49:43;100402.23;;;23.14;37.19
62237;BME280;69163;48.778;2.308;2023-06-14T02:52:08;100403.12;;;22.65;37.17
62237;BME280;69163;48.778;2.308;2023-06-14T02:54:34;100408.10;;;22.65;37.20
62237;BME280;69163;48.778;2.308;2023-06-14T02:56:59;100408.39;;;22.64;37.17
62237;BME280;69163;48.778;2.308;2023-06-14T02:59:24;100410.04;;;22.88;37.18
62237;BME280;69163;48.778;2.308;2023-06-14T03:01:50;100412.72;;;22.68;37.16
62237;BME280;69163;48.778;2.308;2023-06-14T03:04:15;100416.28;;;22.91;37.11
62237;BME280;69163;48.778;2.308;2023-06-14T03:06:40;100414.73;;;22.43;37.10
62237;BME280;69163;48.778;2.308;2023-06-14T03:09:06;100420.37;;;22.45;37.08
62237;BME280;69163;48.778;2.308;2023-06-14T03:11:32;100420.91;;;22.97;37.03
62237;BME280;69163;48.778;2.308;2023-06-14T03:13:57;100422.00;;;22.68;37.08
62237;BME280;69163;48.778;2.308;2023-06-14T03:16:23;100422.20;;;22.65;37.10
62237;BME280;69163;48.778;2.308;2023-06-14T03:18:48;100421.18;;;22.88;37.16
62237;BME280;69163;48.778;2.308;2023-06-14T03:21:14;100423.18;;;23.09;37.17
62237;BME280;69163;48.778;2.308;2023-06-14T03:23:39;100427.89;;;22.86;37.13
62237;BME280;69163;48.778;2.308;2023-06-14T03:26:04;100429.48;;;22.60;37.15
62237;BME280;69163;48.778;2.308;2023-06-14T03:28:29;100437.11;;;22.87;37.11
62237;BME280;69163;48.778;2.308;2023-06-14T03:30:55;100438.95;;;23.12;37.11
62237;BME280;69163;48.778;2.308;2023-06-14T03:33:21;100438.94;;;22.68;37.08
62237;BME280;69163;48.778;2.308;2023-06-14T03:35:46;100446.55;;;22.62;37.06
62237;BME280;69163;48.778;2.308;2023-06-14T03:38:11;100446.17;;;22.60;37.14
62237;BME280;69163;48.778;2.308;2023-06-14T03:40:37;100450.55;;;23.09;37.14
62237;BME280;69163;48.778;2.308;2023-06-14T03:43:02;100453.52;;;23.07;37.19
62237;BME280;69163;48.778;2.308;2023-06-14T03:45:27;100454.70;;;22.56;37.18
62237;BME280;69163;48.778;2.308;2023-06-14T03:47:53;100456.88;;;22.62;37.10
62237;BME280;69163;48.778;2.308;2023-06-14T03:50:17;100459.41;;;22.58;37.17
62237;BME280;69163;48.778;2.308;2023-06-14T03:52:44;100460.28;;;22.84;37.14
62237;BME280;69163;48.778;2.308;2023-06-14T03:55:10;100463.73;;;22.58;37.14
62237;BME280;69163;48.778;2.308;2023-06-14T03:57:34;100464.99;;;22.66;37.06
62237;BME280;69163;48.778;2.308;2023-06-14T04:00:00;100464.71;;;22.71;36.96
62237;BME280;69163;48.778;2.308;2023-06-14T04:02:25;100464.56;;;22.74;36.95
62237;BME280;69163;48.778;2.308;2023-06-14T04:04:51;100464.67;;;22.79;36.89
62237;BME280;69163;48.778;2.308;2023-06-14T04:07:16;100464.71;;;22.80;36.87
62237;BME280;69163;48.778;2.308;2023-06-14T04:09:42;100466.95;;;22.76;36.86
62237;BME280;69163;48.778;2.308;2023-06-14T04:12:08;100469.78;;;22.83;36.81
62237;BME280;69163;48.778;2.308;2023-06-14T04:14:33;100471.12;;;23.07;36.77
62237;BME280;69163;48.778;2.308;2023-06-14T04:16:58;100472.22;;;22.84;36.76
62237;BME280;69163;48.778;2.308;2023-06-14T04:19:23;100471.37;;;22.57;36.80
62237;BME280;69163;48.778;2.308;2023-06-14T04:21:50;100471.84;;;23.13;36.69
62237;BME280;69163;48.778;2.308;2023-06-14T04:24:15;100471.58;;;22.88;36.65
62237;BME280;69163;48.778;2.308;2023-06-14T04:26:43;100475.58;;;23.35;36.69
62237;BME280;69163;48.778;2.308;2023-06-14T04:29:05;100478.09;;;22.64;36.69
62237;BME280;69163;48.778;2.308;2023-06-14T04:31:30;100484.20;;;23.42;36.61
62237;BME280;69163;48.778;2.308;2023-06-14T04:33:56;100486.67;;;22.70;36.58
62237;BME280;69163;48.778;2.308;2023-06-14T04:36:22;100486.74;;;22.68;36.63
62237;BME280;69163;48.778;2.308;2023-06-14T04:38:47;100489.49;;;22.74;36.55
62237;BME280;69163;48.778;2.308;2023-06-14T04:41:13;100495.43;;;23.03;36.48
62237;BME280;69163;48.778;2.308;2023-06-14T04:43:38;100495.58;;;23.04;36.44
62237;BME280;69163;48.778;2.308;2023-06-14T04:46:04;100497.24;;;22.83;36.41
62237;BME280;69163;48.778;2.308;2023-06-14T04:48:28;100493.76;;;23.08;36.42
62237;BME280;69163;48.778;2.308;2023-06-14T04:50:54;100492.86;;;23.09;36.39
62237;BME280;69163;48.778;2.308;2023-06-14T04:53:21;100494.16;;;23.09;36.39
62237;BME280;69163;48.778;2.308;2023-06-14T04:55:46;100497.54;;;22.61;36.38
62237;BME280;69163;48.778;2.308;2023-06-14T04:58:11;100498.15;;;23.08;36.39
62237;BME280;69163;48.778;2.308;2023-06-14T05:00:37;100496.44;;;23.31;36.41
62237;BME280;69163;48.778;2.308;2023-06-14T05:03:02;100494.24;;;23.11;36.38
62237;BME280;69163;48.778;2.308;2023-06-14T05:05:26;100493.09;;;22.85;36.38
62237;BME280;69163;48.778;2.308;2023-06-14T05:07:53;100496.18;;;23.07;36.38
62237;BME280;69163;48.778;2.308;2023-06-14T05:10:18;100501.88;;;23.07;36.41
62237;BME280;69163;48.778;2.308;2023-06-14T05:12:44;100504.77;;;23.09;36.40
62237;BME280;69163;48.778;2.308;2023-06-14T05:15:09;100501.01;;;22.83;36.42
62237;BME280;69163;48.778;2.308;2023-06-14T05:17:35;100499.14;;;23.05;36.44
62237;BME280;69163;48.778;2.308;2023-06-14T05:20:01;100498.62;;;23.08;36.35
62237;BME280;69163;48.778;2.308;2023-06-14T05:22:26;100500.97;;;23.07;36.38
62237;BME280;69163;48.778;2.308;2023-06-14T05:24:51;100502.10;;;23.07;36.37
62237;BME280;69163;48.778;2.308;2023-06-14T05:27:17;100504.36;;;23.34;36.34
62237;BME280;69163;48.778;2.308;2023-06-14T05:29:42;100503.40;;;23.05;36.41
62237;BME280;69163;48.778;2.308;2023-06-14T05:32:07;100504.93;;;23.05;36.41
62237;BME280;69163;48.778;2.308;2023-06-14T05:36:58;100508.69;;;23.33;36.32
62237;BME280;69163;48.778;2.308;2023-06-14T05:39:24;100508.86;;;22.80;36.38
62237;BME280;69163;48.778;2.308;2023-06-14T05:41:50;100509.00;;;23.02;36.39
62237;BME280;69163;48.778;2.308;2023-06-14T05:44:15;100508.91;;;23.01;36.39
62237;BME280;69163;48.778;2.308;2023-06-14T05:46:40;100511.44;;;23.28;36.37
62237;BME280;69163;48.778;2.308;2023-06-14T05:49:06;100514.26;;;23.24;36.43
62237;BME280;69163;48.778;2.308;2023-06-14T05:51:31;100514.01;;;22.99;36.41
62237;BME280;69163;48.778;2.308;2023-06-14T05:53:57;100510.59;;;23.00;36.42
62237;BME280;69163;48.778;2.308;2023-06-14T05:56:23;100513.76;;;23.26;36.38
62237;BME280;69163;48.778;2.308;2023-06-14T05:58:48;100516.12;;;22.96;36.47
62237;BME280;69163;48.778;2.308;2023-06-14T06:01:14;100515.59;;;22.95;36.47
62237;BME280;69163;48.778;2.308;2023-06-14T06:03:39;100520.18;;;22.96;36.45
62237;BME280;69163;48.778;2.308;2023-06-14T06:06:04;100524.31;;;22.74;36.46
62237;BME280;69163;48.778;2.308;2023-06-14T06:08:29;100526.88;;;23.06;36.36
62237;BME280;69163;48.778;2.308;2023-06-14T06:10:55;100527.81;;;23.30;36.36
62237;BME280;69163;48.778;2.308;2023-06-14T06:13:21;100529.19;;;22.80;36.39
62237;BME280;69163;48.778;2.308;2023-06-14T06:15:46;100531.09;;;22.78;36.39
62237;BME280;69163;48.778;2.308;2023-06-14T06:18:11;100532.91;;;22.98;36.42
62237;BME280;69163;48.778;2.308;2023-06-14T06:20:37;100533.61;;;22.97;36.46
62237;BME280;69163;48.778;2.308;2023-06-14T06:23:03;100533.78;;;22.95;36.49
62237;BME280;69163;48.778;2.308;2023-06-14T06:25:29;100534.07;;;23.02;36.39
62237;BME280;69163;48.778;2.308;2023-06-14T06:27:54;100536.19;;;22.99;36.45
62237;BME280;69163;48.778;2.308;2023-06-14T06:30:20;100537.90;;;22.90;36.53
62237;BME280;69163;48.778;2.308;2023-06-14T06:32:46;100537.81;;;22.93;36.53
62237;BME280;69163;48.778;2.308;2023-06-14T06:35:10;100540.38;;;22.73;36.46
62237;BME280;69163;48.778;2.308;2023-06-14T06:37:37;100542.10;;;23.19;36.48
62237;BME280;69163;48.778;2.308;2023-06-14T06:40:02;100546.90;;;22.96;36.43
62237;BME280;69163;48.778;2.308;2023-06-14T06:42:27;100548.87;;;22.95;36.47
62237;BME280;69163;48.778;2.308;2023-06-14T06:44:52;100552.89;;;22.94;36.47
62237;BME280;69163;48.778;2.308;2023-06-14T06:47:17;100550.48;;;22.89;36.51
62237;BME280;69163;48.778;2.308;2023-06-14T06:49:43;100549.93;;;23.12;36.53
62237;BME280;69163;48.778;2.308;2023-06-14T06:52:09;100552.03;;;22.93;36.48
62237;BME280;69163;48.778;2.308;2023-06-14T06:54:34;100551.54;;;22.88;36.54
62237;BME280;69163;48.778;2.308;2023-06-14T06:57:00;100553.42;;;22.88;36.50
62237;BME280;69163;48.778;2.308;2023-06-14T06:59:25;100555.32;;;22.90;36.47
62237;BME280;69163;48.778;2.308;2023-06-14T07:01:51;100557.30;;;22.63;36.54
62237;BME280;69163;48.778;2.308;2023-06-14T07:04:16;100559.92;;;22.88;36.48
62237;BME280;69163;48.778;2.308;2023-06-14T07:06:41;100560.19;;;22.86;36.49
62237;BME280;69163;48.778;2.308;2023-06-14T07:09:06;100565.63;;;22.92;36.43
62237;BME280;69163;48.778;2.308;2023-06-14T07:11:32;100572.79;;;22.85;36.52
62237;BME280;69163;48.778;2.308;2023-06-14T07:13:58;100570.72;;;22.85;36.52
62237;BME280;69163;48.778;2.308;2023-06-14T07:16:23;100576.15;;;22.87;36.51
62237;BME280;69163;48.778;2.308;2023-06-14T07:18:48;100577.52;;;22.62;36.49
62237;BME280;69163;48.778;2.308;2023-06-14T07:21:14;100577.95;;;22.80;36.56
62237;BME280;69163;48.778;2.308;2023-06-14T07:23:39;100580.32;;;22.84;36.50
62237;BME280;69163;48.778;2.308;2023-06-14T07:26:05;100582.93;;;22.85;36.48
62237;BME280;69163;48.778;2.308;2023-06-14T07:28:30;100589.06;;;22.68;36.41
62237;BME280;69163;48.778;2.308;2023-06-14T07:30:55;100592.59;;;23.11;36.48
62237;BME280;69163;48.778;2.308;2023-06-14T07:33:21;100595.83;;;22.65;36.43
62237;BME280;69163;48.778;2.308;2023-06-14T07:35:46;100595.30;;;22.88;36.45
62237;BME280;69163;48.778;2.308;2023-06-14T07:38:12;100597.97;;;23.13;36.42
62237;BME280;69163;48.778;2.308;2023-06-14T07:40:37;100600.21;;;23.10;36.44
62237;BME280;69163;48.778;2.308;2023-06-14T07:43:03;100600.50;;;22.63;36.42
62237;BME280;69163;48.778;2.308;2023-06-14T07:45:28;100599.66;;;22.84;36.44
62237;BME280;69163;48.778;2.308;2023-06-14T07:47:53;100602.20;;;22.87;36.42
62237;BME280;69163;48.778;2.308;2023-06-14T07:50:19;100604.43;;;23.11;36.42
62237;BME280;69163;48.778;2.308;2023-06-14T07:52:45;100604.46;;;22.89;36.41
62237;BME280;69163;48.778;2.308;2023-06-14T07:55:09;100606.51;;;22.84;36.48
62237;BME280;69163;48.778;2.308;2023-06-14T07:57:34;100610.14;;;22.61;36.45
62237;BME280;69163;48.778;2.308;2023-06-14T07:59:59;100610.36;;;23.10;36.46
62237;BME280;69163;48.778;2.308;2023-06-14T08:02:25;100609.51;;;22.86;36.44
62237;BME280;69163;48.778;2.308;2023-06-14T08:04:51;100610.32;;;22.87;36.39
62237;BME280;69163;48.778;2.308;2023-06-14T08:07:15;100613.04;;;22.88;36.40
62237;BME280;69163;48.778;2.308;2023-06-14T08:09:41;100612.14;;;23.11;36.36
62237;BME280;69163;48.778;2.308;2023-06-14T08:12:08;100611.01;;;22.82;36.43
62237;BME280;69163;48.778;2.308;2023-06-14T08:14:32;100609.66;;;22.81;36.43
62237;BME280;69163;48.778;2.308;2023-06-14T08:16:57;100610.17;;;22.80;36.47
62237;BME280;69163;48.778;2.308;2023-06-14T08:19:23;100611.57;;;23.08;36.45
62237;BME280;69163;48.778;2.308;2023-06-14T08:21:48;100617.39;;;22.83;36.45
62237;BME280;69163;48.778;2.308;2023-06-14T08:24:13;100619.59;;;22.83;36.42
62237;BME280;69163;48.778;2.308;2023-06-14T08:26:39;100619.43;;;22.61;36.40
62237;BME280;69163;48.778;2.308;2023-06-14T08:29:05;100617.39;;;22.89;36.36
62237;BME280;69163;48.778;2.308;2023-06-14T08:31:30;100616.11;;;22.85;36.39
62237;BME280;69163;48.778;2.308;2023-06-14T08:33:56;100613.22;;;22.58;36.50
62237;BME280;69163;48.778;2.308;2023-06-14T08:36:20;100612.32;;;23.07;36.52
62237;BME280;69163;48.778;2.308;2023-06-14T08:38:47;100613.55;;;22.59;36.55
62237;BME280;69163;48.778;2.308;2023-06-14T08:41:12;100616.35;;;22.82;36.56
62237;BME280;69163;48.778;2.308;2023-06-14T08:43:37;100617.69;;;22.81;36.52
62237;BME280;69163;48.778;2.308;2023-06-14T08:46:03;100622.85;;;23.02;36.51
62237;BME280;69163;48.778;2.308;2023-06-14T08:48:28;100622.52;;;22.76;36.54
62237;BME280;69163;48.778;2.308;2023-06-14T08:50:55;100625.96;;;22.59;36.45
62237;BME280;69163;48.778;2.308;2023-06-14T08:53:18;100624.92;;;22.56;36.50
62237;BME280;69163;48.778;2.308;2023-06-14T08:55:45;100624.13;;;23.05;36.50
62237;BME280;69163;48.778;2.308;2023-06-14T08:58:10;100621.84;;;23.00;36.57
62237;BME280;69163;48.778;2.308;2023-06-14T09:00:36;100621.72;;;22.78;36.58
62237;BME280;69163;48.778;2.308;2023-06-14T09:03:01;100623.91;;;23.07;36.53
62237;BME280;69163;48.778;2.308;2023-06-14T09:05:28;100629.14;;;22.88;36.45
62237;BME280;69163;48.778;2.308;2023-06-14T09:07:53;100626.86;;;22.84;36.41
62237;BME280;69163;48.778;2.308;2023-06-14T09:10:17;100627.80;;;22.79;36.44
62237;BME280;69163;48.778;2.308;2023-06-14T09:12:43;100629.17;;;23.04;36.44
62237;BME280;69163;48.778;2.308;2023-06-14T09:15:09;100629.95;;;22.77;36.55
62237;BME280;69163;48.778;2.308;2023-06-14T09:17:34;100628.55;;;23.01;36.55
62237;BME280;69163;48.778;2.308;2023-06-14T09:20:00;100628.94;;;22.85;36.41
62237;BME280;69163;48.778;2.308;2023-06-14T09:22:25;100628.35;;;22.82;36.49
62237;BME280;69163;48.778;2.308;2023-06-14T09:24:50;100627.27;;;22.84;36.44
62237;BME280;69163;48.778;2.308;2023-06-14T09:27:16;100629.99;;;23.08;36.36
62237;BME280;69163;48.778;2.308;2023-06-14T09:29:41;100631.22;;;22.84;36.39
62237;BME280;69163;48.778;2.308;2023-06-14T09:32:07;100629.06;;;22.81;36.43
62237;BME280;69163;48.778;2.308;2023-06-14T09:34:33;100631.53;;;22.82;36.33
62237;BME280;69163;48.778;2.308;2023-06-14T09:36:56;100634.71;;;22.81;36.41
62237;BME280;69163;48.778;2.308;2023-06-14T09:39:23;100634.45;;;22.77;36.45
62237;BME280;69163;48.778;2.308;2023-06-14T09:41:48;100632.12;;;22.79;36.41
62237;BME280;69163;48.778;2.308;2023-06-14T09:44:13;100639.19;;;22.76;36.38
62237;BME280;69163;48.778;2.308;2023-06-14T09:46:39;100638.41;;;22.99;36.34
62237;BME280;69163;48.778;2.308;2023-06-14T09:49:05;100645.84;;;22.80;36.32
62237;BME280;69163;48.778;2.308;2023-06-14T09:51:29;100640.07;;;22.79;36.32
62237;BME280;69163;48.778;2.308;2023-06-14T09:53:59;100642.08;;;22.76;36.31
62237;BME280;69163;48.778;2.308;2023-06-14T09:56:27;100639.35;;;22.95;36.34
62237;BME280;69163;48.778;2.308;2023-06-14T09:58:46;100644.74;;;22.72;36.31
62237;BME280;69163;48.778;2.308;2023-06-14T10:01:11;100653.30;;;22.70;36.36
62237;BME280;69163;48.778;2.308;2023-06-14T10:03:37;100647.53;;;22.77;36.23
62237;BME280;69163;48.778;2.308;2023-06-14T10:06:03;100650.56;;;22.73;36.25
62237;BME280;69163;48.778;2.308;2023-06-14T10:08:29;100651.63;;;22.78;36.23
62237;BME280;69163;48.778;2.308;2023-06-14T10:10:53;100649.02;;;22.77;36.25
62237;BME280;69163;48.778;2.308;2023-06-14T10:13:18;100648.92;;;22.97;36.25
62237;BME280;69163;48.778;2.308;2023-06-14T10:15:52;100649.86;;;23.05;36.19
62237;BME280;69163;48.778;2.308;2023-06-14T10:18:14;100652.91;;;23.01;36.27
62237;BME280;69163;48.778;2.308;2023-06-14T10:20:40;100656.32;;;22.74;36.33
62237;BME280;69163;48.778;2.308;2023-06-14T10:23:03;100653.15;;;22.76;36.35
62237;BME280;69163;48.778;2.308;2023-06-14T10:25:28;100653.99;;;23.24;36.36
62237;BME280;69163;48.778;2.308;2023-06-14T10:27:50;100655.89;;;22.80;36.30
62237;BME280;69163;48.778;2.308;2023-06-14T10:30:16;100647.58;;;22.77;36.25
62237;BME280;69163;48.778;2.308;2023-06-14T10:35:07;100637.95;;;23.03;36.20
62237;BME280;69163;48.778;2.308;2023-06-14T10:37:32;100640.93;;;22.80;36.04
62237;BME280;69163;48.778;2.308;2023-06-14T10:39:58;100638.44;;;22.78;36.15
62237;BME280;69163;48.778;2.308;2023-06-14T10:42:23;100636.10;;;22.79;36.16
62237;BME280;69163;48.778;2.308;2023-06-14T10:44:50;100632.20;;;23.08;36.15
62237;BME280;69163;48.778;2.308;2023-06-14T10:47:24;100635.82;;;23.05;36.23
62237;BME280;69163;48.778;2.308;2023-06-14T10:49:40;100622.52;;;22.80;36.22
62237;BME280;69163;48.778;2.308;2023-06-14T10:52:05;100637.94;;;22.83;36.16
62237;BME280;69163;48.778;2.308;2023-06-14T10:54:29;100627.24;;;23.26;36.15
62237;BME280;69163;48.778;2.308;2023-06-14T10:56:54;100626.51;;;22.75;36.18
62237;BME280;69163;48.778;2.308;2023-06-14T10:59:20;100633.67;;;22.48;36.18
62237;BME280;69163;48.778;2.308;2023-06-14T11:01:54;100630.73;;;22.66;36.29
62237;BME280;69163;48.778;2.308;2023-06-14T11:04:11;100632.13;;;22.95;36.25
62237;BME280;69163;48.778;2.308;2023-06-14T11:06:45;100629.03;;;22.94;36.24
62237;BME280;69163;48.778;2.308;2023-06-14T11:11:31;100622.80;;;22.92;36.24
62237;BME280;69163;48.778;2.308;2023-06-14T11:13:52;100629.97;;;22.96;36.18
62237;BME280;69163;48.778;2.308;2023-06-14T11:16:18;100621.79;;;22.71;36.16
62237;BME280;69163;48.778;2.308;2023-06-14T11:18:45;100619.15;;;22.76;35.91
62237;BME280;69163;48.778;2.308;2023-06-14T11:21:08;100626.12;;;22.72;36.08
62237;BME280;69163;48.778;2.308;2023-06-14T11:23:34;100627.22;;;22.96;36.02
62237;BME280;69163;48.778;2.308;2023-06-14T11:26:00;100625.75;;;22.77;36.03
62237;BME280;69163;48.778;2.308;2023-06-14T11:30:59;100620.13;;;22.49;36.08
62237;BME280;69163;48.778;2.308;2023-06-14T11:33:17;100619.79;;;22.95;36.08
62237;BME280;69163;48.778;2.308;2023-06-14T11:35:42;100622.59;;;22.67;36.08
62237;BME280;69163;48.778;2.308;2023-06-14T11:38:07;100618.62;;;22.71;35.98
62237;BME280;69163;48.778;2.308;2023-06-14T11:40:31;100619.91;;;22.68;36.07
62237;BME280;69163;48.778;2.308;2023-06-14T11:43:02;100622.50;;;22.93;36.00
62237;BME280;69163;48.778;2.308;2023-06-14T11:45:23;100620.37;;;22.70;35.99
62237;BME280;69163;48.778;2.308;2023-06-14T11:47:48;100620.04;;;22.75;35.95
62237;BME280;69163;48.778;2.308;2023-06-14T11:50:13;100622.91;;;22.73;36.02
62237;BME280;69163;48.778;2.308;2023-06-14T11:52:39;100614.36;;;22.67;36.18
62237;BME280;69163;48.778;2.308;2023-06-14T11:55:05;100609.97;;;22.70;36.03
62237;BME280;69163;48.778;2.308;2023-06-14T11:57:29;100610.38;;;22.74;35.88
62237;BME280;69163;48.778;2.308;2023-06-14T11:59:55;100611.75;;;22.72;35.95
62237;BME280;69163;48.778;2.308;2023-06-14T12:02:21;100611.31;;;22.96;35.94
62237;BME280;69163;48.778;2.308;2023-06-14T12:04:47;100606.71;;;22.96;36.07
62237;BME280;69163;48.778;2.308;2023-06-14T12:07:10;100615.41;;;22.74;35.89
62237;BME280;69163;48.778;2.308;2023-06-14T12:09:36;100617.81;;;23.24;35.95
62237;BME280;69163;48.778;2.308;2023-06-14T12:12:01;100614.83;;;23.01;36.04
62237;BME280;69163;48.778;2.308;2023-06-14T12:14:28;100614.59;;;22.76;36.00
62237;BME280;69163;48.778;2.308;2023-06-14T12:16:52;100614.03;;;22.77;35.93
62237;BME280;69163;48.778;2.308;2023-06-14T12:19:17;100613.45;;;23.26;35.89
62237;BME280;69163;48.778;2.308;2023-06-14T12:21:46;100619.26;;;22.79;35.94
62237;BME280;69163;48.778;2.308;2023-06-14T12:24:09;100616.46;;;22.79;35.94
62237;BME280;69163;48.778;2.308;2023-06-14T12:26:33;100612.15;;;22.80;35.97
62237;BME280;69163;48.778;2.308;2023-06-14T12:28:58;100609.17;;;22.76;36.02
62237;BME280;69163;48.778;2.308;2023-06-14T12:31:23;100613.72;;;23.24;36.09
62237;BME280;69163;48.778;2.308;2023-06-14T12:33:49;100608.11;;;22.99;36.15
62237;BME280;69163;48.778;2.308;2023-06-14T12:36:16;100609.81;;;22.77;36.04
62237;BME280;69163;48.778;2.308;2023-06-14T12:38:40;100616.66;;;23.02;35.87
62237;BME280;69163;48.778;2.308;2023-06-14T12:41:06;100616.99;;;23.01;35.92
62237;BME280;69163;48.778;2.308;2023-06-14T12:43:32;100618.44;;;22.83;35.83
62237;BME280;69163;48.778;2.308;2023-06-14T12:45:57;100612.35;;;22.80;35.94
62237;BME280;69163;48.778;2.308;2023-06-14T12:48:22;100613.67;;;22.99;36.00
62237;BME280;69163;48.778;2.308;2023-06-14T12:50:48;100608.29;;;22.84;35.90